Route Details

Aircraft Information
Group: North America Fleet
Types: B738, B752, B762, B763
Route Data
Distance: 1204nm
Duration: 3h 14m
Origin METAR: KPHX 170851Z 27006KT 10SM BKN180 34/18 A2980 RMK AO2 SLP068 T03390183 53007
Dest. METAR: KRFD 171054Z 00000KT 10SM FEW250 13/11 A3015 RMK AO2 SLP207 T01330111
Freight Data
(for Aug 18, 2022)
Load Factor:
45%
Manifested Cargo: 48,758lbs
Financial History
Total Freight: 354,442lbs
Average Load: 0lbs/flt
Fuel Used: 168,263lbs
Avg. Fuel Used: 0lbs/flt
Fuel Expense: $106,967
Avg. Fuel Expense: $0
Avg. Fuel Cost: $0/lbs
Total Gross Income: $596,725
Pilot Pay: $1,124
Total Expenses: $68,821
Total Revenue: $418,237
Average Revenue: $0

Capitol Logistics 370




KPHX
Phoenix Sky Harbor International Airport
Phoenix, Arizona
KRFD
Chicago/Rockford International Airport
Rockford, Illinois

Activity Log

Date Flight Route Aircraft Duration
06/21/2022 CPX7485 MRBIL1 JARPA RSK GLD J146 LNK DBQ B752 2h 52m
02/02/2022 CPX7485 BROAK1 MAXXO ACH J231 LBL SLN LMN IOW RFD B763 2h 48m
06/03/2021 CPX7485 MRBIL1 JARPA RSK KD51W KP66G IOW PLL A30F 3h 06m
06/21/2020 CPX231 BROAK1 MAXXO ACH J231 LBL J19 ICT J26 IRK J232 MZV PLL B763 3h 00m
01/07/2020 CPX231 SJN9 ABQ J18 SLN J96 IRK J26 BDF J105 VORIN B763 2h 52m
05/10/2019 CPX231 FTHLS5 ABQ FTI J18 MZV B763 2h 50m